Ruidoso, New Mexico
Current Conditions -  °F | °C
As of 11:15 AM on Thursday 29 Jan 2015 (Local Time) from KSRR Reporting Station
Broken Clouds Broken Clouds  
Wind Chill: 33°   Ceiling: 10000
Heat Index: 41°   Visibility: 10mi
Dew Point: 27°   Wind: 16mph
Humidity: 57%   Direction: 100°E
Pressure: 30.51"   Gusts: 20mph
Location:  33.45°N, 105.52°W
Report Text: KSRR 291815Z AUTO 10014G17KT 10SM BKN100 05/M03 A3051 RMK AO2
Loading
Personal Weather Stations






























Interactive Weather Map New forecast layout! Learn more

10-Day Weather Forecast

Advertisements
Track Severe Weather on mobile